Time;durP1;ratioP1;P1;durP2;ratioP2;P2;SDS_P1;SDS_P2;PMS_P1;PMS_P2;Temp;Humidity;BMP_temperature;BMP_pressure;BME280_temperature;BME280_humidity;BME280_pressure;Samples;Min_cycle;Max_cycle;Signal;HPM_P1;HPM_P2
2022/04/29 00:00:53;;;;;;;;;;;;;;;18.01;61.09;100623.97;2057626;28;19924;-64
2022/04/29 00:01:53;;;;;;;;;;;;;;;18.00;60.97;100631.25;2059226;28;20457;-65
2022/04/29 00:02:54;;;;;;;;;;;;;;;18.00;61.06;100628.53;2060223;28;20683;-65
2022/04/29 00:03:55;;;;;;;;;;;;;;;18.01;61.16;100629.44;2056815;28;20300;-66
2022/04/29 00:04:56;;;;;;;;;;;;;;;18.00;61.02;100627.69;2055030;28;19910;-66
2022/04/29 00:05:57;;;;;;;;;;;;;;;17.99;61.06;100624.09;2056657;28;19918;-66
2022/04/29 00:06:57;;;;;;;;;;;;;;;18.00;61.00;100628.53;2058145;28;19918;-66
2022/04/29 00:07:57;;;;;;;;;;;;;;;17.99;61.22;100625.97;2058881;28;19923;-66
2022/04/29 00:08:58;;;;;;;;;;;;;;;18.00;61.27;100628.53;2056793;28;19957;-66
2022/04/29 00:09:58;;;;;;;;;;;;;;;17.99;61.25;100624.09;2057745;28;19948;-66
2022/04/29 00:10:59;;;;;;;;;;;;;;;17.99;61.28;100629.56;2054252;28;19921;-66
2022/04/29 00:12:01;;;;;;;;;;;;;;;17.99;61.30;100625.97;2059083;28;19939;-66
2022/04/29 00:13:03;;;;;;;;;;;;;;;17.99;61.15;100621.38;2055486;28;19979;-65
2022/04/29 00:14:04;;;;;;;;;;;;;;;17.98;61.40;100625.09;2056758;28;19916;-66
2022/04/29 00:15:04;;;;;;;;;;;;;;;17.99;61.26;100629.56;2058163;28;19928;-66
2022/04/29 00:16:05;;;;;;;;;;;;;;;17.98;61.33;100630.56;2059402;28;19913;-66
2022/04/29 00:17:05;;;;;;;;;;;;;;;17.98;61.37;100627.84;2057719;28;19918;-66
2022/04/29 00:18:06;;;;;;;;;;;;;;;17.99;61.24;100629.56;2058650;28;20005;-66
2022/04/29 00:19:06;;;;;;;;;;;;;;;17.98;61.19;100636.00;2056783;28;19980;-66
2022/04/29 00:20:07;;;;;;;;;;;;;;;17.99;61.23;100626.81;2058341;28;19917;-66
2022/04/29 00:21:07;;;;;;;;;;;;;;;17.99;61.12;100629.56;2057958;28;19952;-66
2022/04/29 00:22:08;;;;;;;;;;;;;;;18.02;61.31;100630.28;2069833;28;19924;-66
2022/04/29 00:23:08;;;;;;;;;;;;;;;18.00;61.08;100630.41;2063660;28;20414;-66
2022/04/29 00:24:12;;;;;;;;;;;;;;;17.99;61.26;100621.38;2065148;28;19917;-65
2022/04/29 00:25:13;;;;;;;;;;;;;;;18.00;61.19;100625.81;2060119;28;20366;-65
2022/04/29 00:26:13;;;;;;;;;;;;;;;18.00;61.08;100624.94;2055910;28;19917;-66
2022/04/29 00:27:13;;;;;;;;;;;;;;;18.00;61.08;100617.63;2057054;28;19925;-66
2022/04/29 00:28:14;;;;;;;;;;;;;;;18.00;61.20;100622.22;2058927;28;19924;-65
2022/04/29 00:29:14;;;;;;;;;;;;;;;18.00;61.26;100622.22;2055247;28;19933;-65
2022/04/29 00:30:15;;;;;;;;;;;;;;;18.00;61.22;100617.63;2069038;28;20445;-67
2022/04/29 00:31:15;;;;;;;;;;;;;;;17.99;61.15;100615.06;2056709;28;19917;-65
2022/04/29 00:32:15;;;;;;;;;;;;;;;18.00;61.18;100623.09;2055796;28;20327;-66
2022/04/29 00:33:16;;;;;;;;;;;;;;;18.00;61.25;100622.22;2058478;28;19953;-66
2022/04/29 00:34:17;;;;;;;;;;;;;;;18.00;61.19;100620.34;2057609;28;19917;-67
2022/04/29 00:35:17;;;;;;;;;;;;;;;17.99;61.18;100615.91;2059671;28;19917;-65
2022/04/29 00:36:18;;;;;;;;;;;;;;;17.98;61.27;100619.66;2056512;28;19917;-67
2022/04/29 00:37:18;;;;;;;;;;;;;;;17.99;61.24;100613.19;2058719;28;19917;-66
2022/04/29 00:38:19;;;;;;;;;;;;;;;17.99;61.32;100615.91;2056468;28;19917;-66
2022/04/29 00:39:19;;;;;;;;;;;;;;;17.98;61.38;100611.47;2058350;28;19921;-66
2022/04/29 00:40:24;;;;;;;;;;;;;;;18.00;61.20;100619.50;2060604;28;19976;-66
2022/04/29 00:41:25;;;;;;;;;;;;;;;17.98;61.19;100614.19;2056322;28;20415;-65
2022/04/29 00:42:25;;;;;;;;;;;;;;;17.99;61.28;100613.19;2052344;28;20339;-65
2022/04/29 00:43:26;;;;;;;;;;;;;;;17.98;61.47;100614.19;2056037;28;19921;-66
2022/04/29 00:44:26;;;;;;;;;;;;;;;17.98;61.47;100614.19;2057949;28;19909;-66
2022/04/29 00:45:26;;;;;;;;;;;;;;;17.98;61.43;100614.19;2055861;28;19918;-66
2022/04/29 00:46:27;;;;;;;;;;;;;;;17.98;61.42;100619.66;2054274;28;20005;-66
2022/04/29 00:47:27;;;;;;;;;;;;;;;17.98;61.17;100608.75;2058551;28;20392;-66
2022/04/29 00:48:28;;;;;;;;;;;;;;;17.98;61.35;100622.38;2056995;28;19925;-66
2022/04/29 00:49:28;;;;;;;;;;;;;;;17.98;61.42;100614.19;2058460;28;20011;-66
2022/04/29 00:50:30;;;;;;;;;;;;;;;17.99;61.43;100620.50;2054929;28;20786;-66
2022/04/29 00:51:30;;;;;;;;;;;;;;;18.00;61.37;100623.09;2055872;28;19944;-66
2022/04/29 00:52:32;;;;;;;;;;;;;;;17.99;61.23;100615.91;2057362;28;19917;-66
2022/04/29 00:53:33;;;;;;;;;;;;;;;17.99;61.34;100615.91;2054603;28;19921;-66
2022/04/29 00:54:36;;;;;;;;;;;;;;;17.99;61.21;100621.38;2058488;28;20597;-66
2022/04/29 00:55:38;;;;;;;;;;;;;;;18.00;61.27;100619.50;2054012;28;19917;-66
2022/04/29 00:56:40;;;;;;;;;;;;;;;17.99;61.21;100610.47;2055753;28;20004;-66
2022/04/29 00:57:41;;;;;;;;;;;;;;;18.00;61.28;100617.63;2058647;28;19971;-66
2022/04/29 00:58:43;;;;;;;;;;;;;;;18.00;61.09;100617.63;2054004;28;19917;-64
2022/04/29 00:59:49;;;;;;;;;;;;;;;17.99;61.11;100615.91;2058388;28;19925;-65
2022/04/29 01:00:50;;;;;;;;;;;;;;;17.99;61.10;100610.47;2055709;28;19925;-65
2022/04/29 01:01:51;;;;;;;;;;;;;;;18.00;61.09;100614.91;2056032;28;19925;-66
2022/04/29 01:02:53;;;;;;;;;;;;;;;18.00;61.06;100612.16;2059514;28;19921;-65
2022/04/29 01:03:54;;;;;;;;;;;;;;;18.00;61.13;100617.63;2057962;28;20431;-67
2022/04/29 01:05:18;;;;;;;;;;;;;;;18.00;61.19;100614.91;2052302;28;19941;-66
2022/04/29 01:06:18;;;;;;;;;;;;;;;17.99;61.03;100621.38;2058598;28;20411;-66
2022/04/29 01:07:19;;;;;;;;;;;;;;;17.99;61.04;100610.47;2053565;28;20607;-65
2022/04/29 01:08:19;;;;;;;;;;;;;;;17.99;61.19;100612.31;2055520;28;20706;-65
2022/04/29 01:09:19;;;;;;;;;;;;;;;18.00;61.31;100614.03;2054051;28;19979;-66
2022/04/29 01:10:20;;;;;;;;;;;;;;;17.99;61.32;100621.38;2057509;28;19931;-64
2022/04/29 01:11:22;;;;;;;;;;;;;;;17.99;61.17;100615.91;2055366;28;19913;-65
2022/04/29 01:12:26;;;;;;;;;;;;;;;17.99;61.47;100615.91;2057785;28;20040;-65
2022/04/29 01:13:27;;;;;;;;;;;;;;;17.99;61.51;100615.06;2065056;28;19928;-65
2022/04/29 01:14:27;;;;;;;;;;;;;;;17.99;61.43;100615.91;2063289;28;20162;-66
2022/04/29 01:15:28;;;;;;;;;;;;;;;17.99;61.52;100615.91;2056661;28;20204;-65
2022/04/29 01:16:28;;;;;;;;;;;;;;;17.98;61.33;100614.19;2056585;28;19918;-66
2022/04/29 01:17:30;;;;;;;;;;;;;;;17.99;61.39;100615.06;2057120;28;19940;-65
2022/04/29 01:18:30;;;;;;;;;;;;;;;17.98;61.48;100614.19;2059043;28;19996;-65
2022/04/29 01:19:30;;;;;;;;;;;;;;;17.98;61.51;100614.19;2054929;28;19918;-65
2022/04/29 01:20:31;;;;;;;;;;;;;;;17.98;61.48;100614.19;2058720;28;20004;-65
2022/04/29 01:21:32;;;;;;;;;;;;;;;17.98;61.42;100611.47;2057497;28;19930;-66
2022/04/29 01:22:32;;;;;;;;;;;;;;;17.98;61.48;100611.47;2056727;28;19924;-66
2022/04/29 01:23:33;;;;;;;;;;;;;;;17.97;61.42;100612.44;2058965;28;20097;-65
2022/04/29 01:24:33;;;;;;;;;;;;;;;17.98;61.37;100608.75;2064468;28;19917;-66
2022/04/29 01:25:34;;;;;;;;;;;;;;;17.98;61.46;100608.75;2062810;28;20745;-66
2022/04/29 01:26:34;;;;;;;;;;;;;;;17.98;61.48;100614.19;2052414;28;20667;-66
2022/04/29 01:27:35;;;;;;;;;;;;;;;17.99;61.23;100610.47;2055199;28;20016;-65
2022/04/29 01:28:35;;;;;;;;;;;;;;;17.99;61.35;100613.19;2054114;28;20416;-64
2022/04/29 01:29:37;;;;;;;;;;;;;;;18.00;61.29;100614.91;2053373;28;20005;-65
2022/04/29 01:30:39;;;;;;;;;;;;;;;18.00;61.34;100614.91;2054710;28;19932;-66
2022/04/29 01:31:39;;;;;;;;;;;;;;;18.00;61.28;100616.78;2053203;28;19925;-66
2022/04/29 01:32:40;;;;;;;;;;;;;;;17.99;61.24;100615.91;2056243;28;19957;-66
2022/04/29 01:33:42;;;;;;;;;;;;;;;18.00;61.26;100616.78;2050861;28;19918;-66
2022/04/29 01:34:42;;;;;;;;;;;;;;;17.99;61.30;100612.31;2056094;28;20388;-65
2022/04/29 01:35:44;;;;;;;;;;;;;;;18.00;61.17;100616.78;2055701;28;20612;-65
2022/04/29 01:36:45;;;;;;;;;;;;;;;17.99;61.37;100615.91;2059382;28;19924;-65
2022/04/29 01:37:45;;;;;;;;;;;;;;;17.98;61.28;100614.19;2055958;28;19925;-65
2022/04/29 01:38:45;;;;;;;;;;;;;;;17.98;61.31;100614.19;2057959;28;19921;-65
2022/04/29 01:39:46;;;;;;;;;;;;;;;17.98;61.51;100614.19;2058649;28;20300;-65
2022/04/29 01:40:46;;;;;;;;;;;;;;;17.98;61.31;100608.75;2056476;28;20451;-65
2022/04/29 01:41:46;;;;;;;;;;;;;;;17.98;61.36;100614.19;2056934;28;19918;-63
2022/04/29 01:42:47;;;;;;;;;;;;;;;17.98;61.50;100619.66;2057382;28;19960;-66
2022/04/29 01:43:47;;;;;;;;;;;;;;;17.98;61.35;100613.31;2056874;28;20216;-65
2022/04/29 01:44:47;;;;;;;;;;;;;;;17.97;61.31;100606.97;2056090;28;19918;-65
2022/04/29 01:45:48;;;;;;;;;;;;;;;17.97;61.30;100611.59;2056113;28;20208;-65
2022/04/29 01:46:48;;;;;;;;;;;;;;;17.97;61.35;100606.97;2057421;28;19918;-65
2022/04/29 01:47:48;;;;;;;;;;;;;;;17.98;61.59;100614.19;2057142;28;19910;-66
2022/04/29 01:48:49;;;;;;;;;;;;;;;17.99;61.44;100615.06;2056823;28;20313;-66
2022/04/29 01:49:49;;;;;;;;;;;;;;;17.97;61.46;100611.59;2058936;28;19916;-66
2022/04/29 01:50:49;;;;;;;;;;;;;;;17.97;61.35;100612.44;2055583;28;20850;-65
2022/04/29 01:51:50;;;;;;;;;;;;;;;17.98;61.43;100619.66;2057403;28;19922;-65
2022/04/29 01:52:50;;;;;;;;;;;;;;;17.98;61.30;100619.66;2057802;28;19924;-65
2022/04/29 01:53:53;;;;;;;;;;;;;;;17.98;61.55;100614.19;2055152;28;19922;-65
2022/04/29 01:54:54;;;;;;;;;;;;;;;18.00;61.38;100622.22;2057750;28;19925;-65
2022/04/29 01:55:54;;;;;;;;;;;;;;;17.98;61.48;100616.91;2055744;28;19945;-66
2022/04/29 01:56:54;;;;;;;;;;;;;;;17.98;61.28;100614.19;2052537;28;19953;-66
2022/04/29 01:57:56;;;;;;;;;;;;;;;17.98;61.34;100614.19;2057099;28;19917;-66
2022/04/29 01:58:57;;;;;;;;;;;;;;;17.98;61.39;100614.19;2055708;28;20507;-66
2022/04/29 01:59:57;;;;;;;;;;;;;;;17.98;61.43;100611.47;2055532;28;19979;-65
2022/04/29 02:00:57;;;;;;;;;;;;;;;17.99;61.43;100615.91;2057579;28;20233;-65
2022/04/29 02:01:58;;;;;;;;;;;;;;;17.99;61.19;100610.47;2055350;28;20317;-65
2022/04/29 02:02:58;;;;;;;;;;;;;;;17.99;61.34;100610.47;2058822;28;20735;-65
2022/04/29 02:03:59;;;;;;;;;;;;;;;17.99;61.31;100615.91;2058962;28;20313;-65
2022/04/29 02:04:59;;;;;;;;;;;;;;;18.00;61.36;100611.31;2056152;28;20733;-66
2022/04/29 02:05:59;;;;;;;;;;;;;;;17.98;61.14;100608.75;2059814;28;20457;-65
2022/04/29 02:07:00;;;;;;;;;;;;;;;17.99;61.14;100607.72;2055017;28;19925;-65
2022/04/29 02:08:01;;;;;;;;;;;;;;;17.99;61.35;100604.13;2058605;28;20096;-65
2022/04/29 02:09:01;;;;;;;;;;;;;;;17.98;61.33;100608.75;2059824;28;19917;-64
2022/04/29 02:10:01;;;;;;;;;;;;;;;17.98;61.36;100603.28;2058173;28;20446;-65
2022/04/29 02:11:02;;;;;;;;;;;;;;;17.98;61.26;100600.56;2058822;28;19932;-66
2022/04/29 02:12:05;;;;;;;;;;;;;;;17.98;61.22;100603.28;2060605;28;20549;-66
2022/04/29 02:13:05;;;;;;;;;;;;;;;17.99;61.20;100606.88;2058705;28;20020;-67
2022/04/29 02:14:06;;;;;;;;;;;;;;;17.97;61.51;100606.97;2056207;28;20526;-66
2022/04/29 02:15:06;;;;;;;;;;;;;;;17.98;61.47;100600.56;2058692;28;19929;-66
2022/04/29 02:16:07;;;;;;;;;;;;;;;17.97;61.30;100601.53;2061884;28;19968;-66
2022/04/29 02:17:08;;;;;;;;;;;;;;;17.97;61.35;100597.94;2058117;28;19960;-66
2022/04/29 02:18:09;;;;;;;;;;;;;;;17.97;61.47;100601.53;2058486;28;19940;-64
2022/04/29 02:19:09;;;;;;;;;;;;;;;17.97;61.46;100600.66;2057623;28;19921;-65
2022/04/29 02:20:09;;;;;;;;;;;;;;;17.96;61.48;100605.25;2061074;28;19917;-66
2022/04/29 02:21:10;;;;;;;;;;;;;;;17.96;61.37;100599.81;2057055;28;19996;-65
2022/04/29 02:22:10;;;;;;;;;;;;;;;17.97;61.52;100598.81;2060643;28;20498;-65
2022/04/29 02:23:10;;;;;;;;;;;;;;;17.96;61.61;100599.81;2057795;28;19917;-65
2022/04/29 02:24:11;;;;;;;;;;;;;;;17.97;61.48;100600.66;2058783;28;19917;-65
2022/04/29 02:25:12;;;;;;;;;;;;;;;17.97;61.50;100601.53;2054554;28;20763;-65
2022/04/29 02:26:13;;;;;;;;;;;;;;;17.97;61.38;100606.97;2058213;28;20300;-66
2022/04/29 02:27:13;;;;;;;;;;;;;;;17.97;61.65;100589.75;2060884;28;19910;-66
2022/04/29 02:28:13;;;;;;;;;;;;;;;17.98;61.57;100596.94;2058356;28;19917;-65
2022/04/29 02:29:14;;;;;;;;;;;;;;;17.98;61.34;100595.09;2058480;28;19952;-65
2022/04/29 02:30:14;;;;;;;;;;;;;;;17.97;61.53;100601.53;2060608;28;20311;-65
2022/04/29 02:31:14;;;;;;;;;;;;;;;17.98;61.47;100603.28;2055049;28;20032;-66
2022/04/29 02:32:15;;;;;;;;;;;;;;;17.98;61.39;100603.28;2062398;28;19961;-67
2022/04/29 02:33:15;;;;;;;;;;;;;;;17.98;61.33;100597.81;2056909;28;20093;-65
2022/04/29 02:34:16;;;;;;;;;;;;;;;17.98;61.44;100606.00;2058694;28;20015;-65
2022/04/29 02:35:16;;;;;;;;;;;;;;;17.98;61.38;100600.56;2060192;28;20363;-66
2022/04/29 02:36:16;;;;;;;;;;;;;;;17.99;61.49;100595.97;2055512;28;19917;-66
2022/04/29 02:37:17;;;;;;;;;;;;;;;17.97;61.45;100600.66;2059347;28;19917;-66
2022/04/29 02:38:17;;;;;;;;;;;;;;;17.97;61.42;100595.22;2056281;28;19916;-66
2022/04/29 02:39:17;;;;;;;;;;;;;;;17.99;61.49;100604.13;2058943;28;19928;-66
2022/04/29 02:40:18;;;;;;;;;;;;;;;17.97;61.42;100595.22;2062808;28;19924;-66
2022/04/29 02:41:18;;;;;;;;;;;;;;;17.97;61.50;100596.06;2056832;28;20200;-66
2022/04/29 02:42:19;;;;;;;;;;;;;;;17.96;61.50;100597.09;2059619;28;20016;-66
2022/04/29 02:43:19;;;;;;;;;;;;;;;17.96;61.38;100597.09;2057592;28;20720;-66
2022/04/29 02:44:19;;;;;;;;;;;;;;;17.96;61.40;100599.81;2055641;28;19917;-66
2022/04/29 02:45:20;;;;;;;;;;;;;;;17.97;61.50;100612.44;2055623;28;19919;-66
2022/04/29 02:46:20;;;;;;;;;;;;;;;17.97;61.65;100598.81;2059622;28;20419;-66
2022/04/29 02:47:20;;;;;;;;;;;;;;;17.95;61.51;100595.34;2057873;28;19917;-66
2022/04/29 02:48:20;;;;;;;;;;;;;;;17.96;61.59;100605.25;2059669;28;20490;-66
2022/04/29 02:49:21;;;;;;;;;;;;;;;17.96;61.56;100597.09;2058970;28;19944;-65
2022/04/29 02:50:21;;;;;;;;;;;;;;;17.96;61.49;100599.81;2054464;28;19928;-66
2022/04/29 02:51:21;;;;;;;;;;;;;;;17.96;61.77;100604.41;2058646;28;19918;-66
2022/04/29 02:52:22;;;;;;;;;;;;;;;17.94;61.60;100593.63;2056812;28;19953;-66
2022/04/29 02:53:22;;;;;;;;;;;;;;;17.95;61.63;100592.59;2058933;28;20407;-66
2022/04/29 02:54:23;;;;;;;;;;;;;;;17.96;61.62;100593.50;2066711;28;19975;-66
2022/04/29 02:55:23;;;;;;;;;;;;;;;17.95;61.63;100595.34;2065355;28;19917;-66
2022/04/29 02:56:23;;;;;;;;;;;;;;;17.96;61.62;100594.34;2059796;28;20544;-66
2022/04/29 02:57:24;;;;;;;;;;;;;;;17.96;61.67;100594.34;2052348;28;19968;-66
2022/04/29 02:58:24;;;;;;;;;;;;;;;17.96;61.55;100588.91;2054609;28;21102;-66
2022/04/29 02:59:25;;;;;;;;;;;;;;;17.97;61.61;100595.22;2059647;28;19932;-66
2022/04/29 03:00:25;;;;;;;;;;;;;;;17.98;61.38;100592.38;2059688;28;19918;-66
2022/04/29 03:01:25;;;;;;;;;;;;;;;17.97;61.50;100592.50;2057184;28;20007;-66
2022/04/29 03:02:27;;;;;;;;;;;;;;;17.97;61.48;100592.50;2060044;28;19918;-65
2022/04/29 03:03:28;;;;;;;;;;;;;;;17.97;61.54;100596.06;2058506;28;19921;-65
2022/04/29 03:04:28;;;;;;;;;;;;;;;17.96;61.48;100594.34;2060852;28;19920;-66
2022/04/29 03:05:28;;;;;;;;;;;;;;;17.98;61.53;100592.38;2055671;28;20430;-66
2022/04/29 03:06:29;;;;;;;;;;;;;;;17.97;61.48;100596.06;2059622;28;20526;-65
2022/04/29 03:07:29;;;;;;;;;;;;;;;17.98;61.42;100596.94;2058335;28;19959;-65
2022/04/29 03:08:29;;;;;;;;;;;;;;;17.98;61.50;100596.94;2060555;28;19910;-65
2022/04/29 03:09:31;;;;;;;;;;;;;;;17.97;61.42;100596.06;2057083;28;19917;-65
2022/04/29 03:10:31;;;;;;;;;;;;;;;17.98;61.51;100596.94;2058502;28;19941;-65
2022/04/29 03:11:32;;;;;;;;;;;;;;;17.97;61.37;100596.06;2058647;28;20373;-65
2022/04/29 03:12:32;;;;;;;;;;;;;;;17.97;61.48;100590.63;2057425;28;19909;-65
2022/04/29 03:13:32;;;;;;;;;;;;;;;17.98;61.40;100594.19;2061704;28;19917;-65
2022/04/29 03:14:33;;;;;;;;;;;;;;;17.97;61.36;100595.22;2055761;28;19917;-66
2022/04/29 03:15:34;;;;;;;;;;;;;;;17.96;61.47;100588.91;2069957;28;19931;-64
2022/04/29 03:16:36;;;;;;;;;;;;;;;17.96;61.38;100594.34;2059027;28;19999;-65
2022/04/29 03:18:18;;;;;;;;;;;;;;;17.96;61.56;100591.63;2058471;28;20533;-65
2022/04/29 03:19:00;;;;;;;;;;;;;;;17.96;61.42;100593.50;2048770;28;19957;-65
2022/04/29 03:20:00;;;;;;;;;;;;;;;17.96;61.55;100593.50;2058503;28;19918;-66
2022/04/29 03:21:00;;;;;;;;;;;;;;;17.95;61.49;100587.16;2058309;28;19918;-66
2022/04/29 03:22:01;;;;;;;;;;;;;;;17.95;61.66;100586.28;2058128;28;20049;-66
2022/04/29 03:23:02;;;;;;;;;;;;;;;17.95;61.57;100586.28;2057252;28;19929;-65
2022/04/29 03:24:03;;;;;;;;;;;;;;;17.96;61.51;100588.03;2059429;28;19920;-65
2022/04/29 03:25:06;;;;;;;;;;;;;;;17.95;61.60;100592.59;2058738;28;19917;-65
2022/04/29 03:26:06;;;;;;;;;;;;;;;17.95;61.72;100586.28;2057354;28;19918;-65
2022/04/29 03:27:07;;;;;;;;;;;;;;;17.95;61.68;100587.16;2060530;28;19924;-65
2022/04/29 03:28:08;;;;;;;;;;;;;;;17.95;61.59;100591.75;2054929;28;19910;-66
2022/04/29 03:29:08;;;;;;;;;;;;;;;17.95;61.62;100592.59;2059897;28;19964;-65
2022/04/29 03:30:09;;;;;;;;;;;;;;;17.95;61.53;100600.78;2063885;28;19995;-65
2022/04/29 03:31:09;;;;;;;;;;;;;;;17.95;61.64;100595.34;2063482;28;20152;-66
2022/04/29 03:32:09;;;;;;;;;;;;;;;17.96;61.56;100593.50;2058838;28;19983;-66
2022/04/29 03:33:10;;;;;;;;;;;;;;;17.95;61.51;100592.59;2057692;28;20013;-66
2022/04/29 03:34:11;;;;;;;;;;;;;;;17.97;61.65;100595.22;2059323;28;19960;-66
2022/04/29 03:35:11;;;;;;;;;;;;;;;17.96;61.50;100598.94;2057121;28;19913;-65
2022/04/29 03:36:11;;;;;;;;;;;;;;;17.96;61.40;100594.34;2059487;28;19928;-65
2022/04/29 03:37:12;;;;;;;;;;;;;;;17.96;61.37;100599.81;2058909;28;19917;-66
2022/04/29 03:38:12;;;;;;;;;;;;;;;17.97;61.60;100598.81;2057963;28;19909;-65
2022/04/29 03:39:12;;;;;;;;;;;;;;;17.97;61.40;100597.94;2058025;28;20149;-66
2022/04/29 03:40:15;;;;;;;;;;;;;;;17.96;61.32;100597.09;2057051;28;20067;-65
2022/04/29 03:41:16;;;;;;;;;;;;;;;17.95;61.38;100592.59;2054287;28;20467;-65
2022/04/29 03:42:16;;;;;;;;;;;;;;;17.96;61.53;100599.81;2057819;28;20406;-65
2022/04/29 03:43:17;;;;;;;;;;;;;;;17.96;61.39;100599.81;2056990;28;20331;-66
2022/04/29 03:44:19;;;;;;;;;;;;;;;17.96;61.55;100593.50;2056049;28;20431;-65
2022/04/29 03:45:20;;;;;;;;;;;;;;;17.95;61.73;100592.59;2057241;28;20534;-65
2022/04/29 03:46:20;;;;;;;;;;;;;;;17.95;61.72;100591.75;2058272;28;20368;-65
2022/04/29 03:47:21;;;;;;;;;;;;;;;17.95;61.56;100597.19;2055410;28;19988;-64
2022/04/29 03:48:21;;;;;;;;;;;;;;;17.95;61.71;100589.88;2058856;28;20479;-65
2022/04/29 03:49:36;;;;;;;;;;;;;;;17.95;61.71;100592.59;2058471;28;19975;-66
2022/04/29 03:50:38;;;;;;;;;;;;;;;17.95;61.65;100598.06;2056225;28;19917;-63
2022/04/29 03:51:38;;;;;;;;;;;;;;;17.95;61.67;100589.03;2059079;28;20426;-65
2022/04/29 03:52:45;;;;;;;;;;;;;;;17.94;61.54;100601.81;2056785;28;20016;-65
2022/04/29 03:53:47;;;;;;;;;;;;;;;17.93;61.73;100589.16;2056945;28;19917;-65
2022/04/29 03:54:47;;;;;;;;;;;;;;;17.93;61.64;100589.16;2059557;28;20289;-65
2022/04/29 03:55:48;;;;;;;;;;;;;;;17.94;61.84;100596.34;2059880;28;20008;-65
2022/04/29 03:56:48;;;;;;;;;;;;;;;17.94;61.75;100598.22;2054953;28;20631;-66
2022/04/29 03:57:49;;;;;;;;;;;;;;;17.94;61.77;100590.88;2056865;28;19909;-66
2022/04/29 03:58:49;;;;;;;;;;;;;;;17.94;61.58;100596.34;2056938;28;20371;-66
2022/04/29 03:59:49;;;;;;;;;;;;;;;17.95;61.76;100598.06;2057709;28;19920;-65
2022/04/29 04:00:49;;;;;;;;;;;;;;;17.95;61.60;100603.50;2058673;28;19914;-65
2022/04/29 04:01:51;;;;;;;;;;;;;;;17.95;61.53;100600.78;2053405;28;19917;-65
2022/04/29 04:02:51;;;;;;;;;;;;;;;17.95;61.72;100598.06;2057615;28;19921;-66
2022/04/29 04:03:52;;;;;;;;;;;;;;;17.96;61.54;100598.94;2057595;28;19925;-66
2022/04/29 04:04:52;;;;;;;;;;;;;;;17.96;61.66;100593.50;2056961;28;19914;-66
2022/04/29 04:07:11;;;;;;;;;;;;;;;17.96;61.48;100593.50;2059743;28;20696;-65
2022/04/29 04:08:11;;;;;;;;;;;;;;;17.96;61.46;100596.22;2055992;28;20797;-65
2022/04/29 04:09:12;;;;;;;;;;;;;;;17.95;61.51;100600.78;2056971;28;20257;-66
2022/04/29 04:10:12;;;;;;;;;;;;;;;17.95;61.39;100587.16;2059534;28;20368;-66
2022/04/29 04:11:13;;;;;;;;;;;;;;;17.95;61.37;100595.34;2055812;28;19917;-65
2022/04/29 04:12:13;;;;;;;;;;;;;;;17.95;61.59;100598.06;2057442;28;19982;-66
2022/04/29 04:13:14;;;;;;;;;;;;;;;17.95;61.56;100598.06;2058063;28;19924;-66
2022/04/29 04:14:16;;;;;;;;;;;;;;;17.96;61.54;100598.94;2056564;28;19924;-66
2022/04/29 04:15:18;;;;;;;;;;;;;;;17.95;61.51;100595.34;2058063;28;20180;-66
2022/04/29 04:16:23;;;;;;;;;;;;;;;17.95;61.65;100598.06;2059191;28;19909;-66
2022/04/29 04:17:23;;;;;;;;;;;;;;;17.95;61.62;100592.59;2058655;28;20012;-65
2022/04/29 04:18:23;;;;;;;;;;;;;;;17.95;61.75;100598.06;2058604;28;19975;-65
2022/04/29 04:19:24;;;;;;;;;;;;;;;17.94;61.63;100596.34;2058254;28;19921;-66
2022/04/29 04:20:24;;;;;;;;;;;;;;;17.94;61.63;100593.63;2058080;28;20506;-65
2022/04/29 04:21:24;;;;;;;;;;;;;;;17.94;61.56;100590.88;2059031;28;19983;-65
2022/04/29 04:22:26;;;;;;;;;;;;;;;17.95;61.70;100591.75;2054560;28;19918;-65
2022/04/29 04:23:26;;;;;;;;;;;;;;;17.94;61.60;100590.03;2057302;28;19939;-65
2022/04/29 04:24:26;;;;;;;;;;;;;;;17.94;61.85;100599.06;2059809;28;20178;-65
2022/04/29 04:25:27;;;;;;;;;;;;;;;17.94;61.74;100596.34;2056469;28;20738;-65
2022/04/29 04:26:27;;;;;;;;;;;;;;;17.93;61.82;100600.09;2059793;28;19924;-65
2022/04/29 04:27:27;;;;;;;;;;;;;;;17.93;61.81;100600.09;2053349;28;19956;-65
2022/04/29 04:28:28;;;;;;;;;;;;;;;17.93;61.78;100600.09;2056037;28;19922;-65
2022/04/29 04:29:28;;;;;;;;;;;;;;;17.93;61.74;100600.09;2056747;28;20943;-66
2022/04/29 04:30:28;;;;;;;;;;;;;;;17.93;61.87;100602.81;2059979;28;20627;-66
2022/04/29 04:31:29;;;;;;;;;;;;;;;17.93;61.66;100600.09;2057921;28;19917;-65
2022/04/29 04:32:32;;;;;;;;;;;;;;;17.94;61.81;100601.81;2055913;28;19925;-64
2022/04/29 04:33:33;;;;;;;;;;;;;;;17.94;61.71;100596.34;2055578;28;19914;-65
2022/04/29 04:34:51;;;;;;;;;;;;;;;17.94;61.67;100596.34;2058122;28;19939;-65
2022/04/29 04:35:51;;;;;;;;;;;;;;;17.95;61.57;100608.13;2054968;28;19917;-65
2022/04/29 04:36:54;;;;;;;;;;;;;;;17.94;61.57;100607.25;2058339;28;19917;-65
2022/04/29 04:37:55;;;;;;;;;;;;;;;17.94;61.73;100601.81;2063341;28;19917;-65
2022/04/29 04:38:55;;;;;;;;;;;;;;;17.94;61.56;100600.94;2066703;28;19917;-65
2022/04/29 04:39:58;;;;;;;;;;;;;;;17.93;61.66;100597.34;2056966;28;19947;-65
2022/04/29 04:40:59;;;;;;;;;;;;;;;17.94;61.64;100604.53;2057203;28;20167;-66
2022/04/29 04:41:59;;;;;;;;;;;;;;;17.94;61.60;100599.06;2057873;28;19925;-66
2022/04/29 04:42:59;;;;;;;;;;;;;;;17.94;61.61;100604.53;2062190;28;19928;-66
2022/04/29 04:43:59;;;;;;;;;;;;;;;17.95;61.63;100603.50;2064892;28;19917;-66
2022/04/29 04:45:00;;;;;;;;;;;;;;;17.95;61.50;100603.50;2053698;28;19960;-66
2022/04/29 04:46:01;;;;;;;;;;;;;;;17.95;61.64;100608.13;2051468;28;19917;-66
2022/04/29 04:47:02;;;;;;;;;;;;;;;17.93;61.70;100605.53;2055566;28;20191;-66
2022/04/29 04:48:02;;;;;;;;;;;;;;;17.94;61.57;100600.94;2059871;28;19972;-65
2022/04/29 04:49:02;;;;;;;;;;;;;;;17.94;61.47;100606.41;2057049;28;20000;-65
2022/04/29 04:50:03;;;;;;;;;;;;;;;17.94;61.74;100606.41;2058283;28;20015;-65
2022/04/29 04:51:04;;;;;;;;;;;;;;;17.93;61.52;100600.09;2058578;28;19917;-66
2022/04/29 04:52:04;;;;;;;;;;;;;;;17.92;61.61;100603.78;2057221;28;20398;-66
2022/04/29 04:53:05;;;;;;;;;;;;;;;17.93;61.70;100605.53;2059833;28;19924;-65
2022/04/29 04:54:05;;;;;;;;;;;;;;;17.93;61.79;100611.00;2056234;28;19910;-65
2022/04/29 04:55:06;;;;;;;;;;;;;;;17.93;61.82;100612.81;2057278;28;19923;-66
2022/04/29 04:56:06;;;;;;;;;;;;;;;17.91;61.76;100607.53;2057721;28;20319;-66
2022/04/29 04:57:07;;;;;;;;;;;;;;;17.93;61.87;100612.81;2057232;28;19921;-66
2022/04/29 04:58:09;;;;;;;;;;;;;;;17.93;61.69;100610.09;2057254;28;19913;-66
2022/04/29 04:59:09;;;;;;;;;;;;;;;17.92;61.77;100617.41;2051356;28;19922;-65
2022/04/29 05:00:10;;;;;;;;;;;;;;;17.92;61.87;100609.25;2055459;28;19924;-65
2022/04/29 05:01:10;;;;;;;;;;;;;;;17.92;61.86;100608.38;2059053;28;19963;-65
2022/04/29 05:02:10;;;;;;;;;;;;;;;17.92;61.84;100613.84;2057419;28;19960;-65
2022/04/29 05:03:11;;;;;;;;;;;;;;;17.92;61.79;100614.69;2058184;28;19960;-65
2022/04/29 05:04:11;;;;;;;;;;;;;;;17.93;61.79;100610.09;2056447;28;19921;-65
2022/04/29 05:05:12;;;;;;;;;;;;;;;17.94;61.54;100611.84;2064250;28;20296;-64
2022/04/29 05:06:12;;;;;;;;;;;;;;;17.92;61.46;100611.97;2065980;28;19980;-66
2022/04/29 05:07:13;;;;;;;;;;;;;;;17.93;61.68;100608.25;2058349;28;20271;-65
2022/04/29 05:08:13;;;;;;;;;;;;;;;17.94;61.42;100612.72;2058272;28;19917;-64
2022/04/29 05:09:14;;;;;;;;;;;;;;;17.93;61.54;100610.09;2056560;28;20112;-65
2022/04/29 05:10:15;;;;;;;;;;;;;;;17.94;61.64;100612.72;2060276;28;19917;-64
2022/04/29 05:11:15;;;;;;;;;;;;;;;17.93;61.49;100613.72;2056491;28;19917;-65
2022/04/29 05:12:15;;;;;;;;;;;;;;;17.94;61.64;100617.31;2057177;28;19952;-65
2022/04/29 05:13:16;;;;;;;;;;;;;;;17.95;61.47;100619.03;2059164;28;19917;-65
2022/04/29 05:14:16;;;;;;;;;;;;;;;17.94;61.60;100618.16;2056142;28;19929;-65